Time;durP1;ratioP1;P1;durP2;ratioP2;P2;SDS_P1;SDS_P2;PMS_P1;PMS_P2;Temp;Humidity;BMP_temperature;BMP_pressure;BME280_temperature;BME280_humidity;BME280_pressure;Samples;Min_cycle;Max_cycle;Signal;HPM_P1;HPM_P2
2020/12/22 00:00:17;;;;;;;56.70;10.82;;;11.70;99.90;;;;;;4940921;28;20162;-90
2020/12/22 00:02:47;;;;;;;46.95;10.75;;;11.80;99.90;;;;;;4941040;28;20062;-85
2020/12/22 00:05:14;;;;;;;41.88;10.32;;;11.70;99.90;;;;;;4940891;28;20053;-85
2020/12/22 00:07:40;;;;;;;52.92;11.15;;;11.70;99.90;;;;;;4940941;28;20050;-86
2020/12/22 00:10:08;;;;;;;50.42;12.63;;;11.70;99.90;;;;;;4940939;28;20118;-85
2020/12/22 00:12:35;;;;;;;44.60;10.98;;;11.70;99.90;;;;;;4956783;28;20034;-86
2020/12/22 00:15:00;;;;;;;48.78;13.25;;;11.70;99.90;;;;;;4956989;28;20100;-86
2020/12/22 00:17:29;;;;;;;51.72;14.18;;;11.80;99.90;;;;;;4974530;28;20027;-86
2020/12/22 00:19:55;;;;;;;62.10;14.48;;;11.80;99.90;;;;;;4925049;28;20058;-85
2020/12/22 00:22:20;;;;;;;57.65;14.02;;;11.80;99.90;;;;;;4927643;28;20109;-86
2020/12/22 00:24:46;;;;;;;68.38;14.15;;;11.80;99.90;;;;;;4978193;28;20479;-86
2020/12/22 00:27:12;;;;;;;51.38;12.23;;;11.80;99.90;;;;;;4945163;28;20417;-86
2020/12/22 00:29:37;;;;;;;37.25;9.77;;;11.80;99.90;;;;;;4944961;28;20027;-86
2020/12/22 00:32:03;;;;;;;48.95;11.50;;;11.80;99.90;;;;;;4961226;28;20035;-85
2020/12/22 00:34:29;;;;;;;35.78;8.30;;;11.80;99.90;;;;;;4961067;28;20026;-85
2020/12/22 00:36:55;;;;;;;25.63;6.28;;;11.80;99.90;;;;;;4976759;28;20034;-85
2020/12/22 00:39:21;;;;;;;29.17;6.18;;;11.70;99.90;;;;;;4977605;28;20027;-87
2020/12/22 00:41:54;;;;;;;14.18;4.57;;;11.70;99.90;;;;;;4960553;28;20419;-86
2020/12/22 00:44:21;;;;;;;19.08;5.13;;;11.70;99.90;;;;;;4977661;28;20046;-86
2020/12/22 00:46:47;;;;;;;9.30;2.47;;;11.60;99.90;;;;;;4944640;28;20026;-84
2020/12/22 00:49:12;;;;;;;8.63;2.58;;;11.60;99.90;;;;;;4960618;28;20435;-85
2020/12/22 00:51:38;;;;;;;6.78;1.83;;;11.50;99.90;;;;;;4960344;28;20372;-85
2020/12/22 00:54:04;;;;;;;7.93;2.45;;;11.50;99.90;;;;;;4944054;28;20392;-85
2020/12/22 00:56:29;;;;;;;8.68;2.30;;;11.50;99.90;;;;;;4928025;28;20026;-86
2020/12/22 00:58:55;;;;;;;7.38;2.03;;;11.50;99.90;;;;;;4977588;28;20026;-84
2020/12/22 01:01:21;;;;;;;6.65;2.33;;;11.50;99.90;;;;;;4977326;28;20031;-85
2020/12/22 01:03:47;;;;;;;9.98;2.20;;;11.50;99.90;;;;;;4959776;28;20022;-86
2020/12/22 01:06:13;;;;;;;7.00;2.13;;;11.50;99.90;;;;;;4977256;28;20026;-85
2020/12/22 01:08:39;;;;;;;9.93;2.17;;;11.50;99.90;;;;;;4960024;28;20034;-85
2020/12/22 01:11:04;;;;;;;12.25;3.25;;;11.50;99.90;;;;;;4976142;28;20035;-84
2020/12/22 01:13:30;;;;;;;8.73;2.38;;;11.50;99.90;;;;;;4960395;28;20037;-85
2020/12/22 01:15:57;;;;;;;13.05;2.65;;;11.50;99.90;;;;;;4944073;28;20086;-85
2020/12/22 01:18:22;;;;;;;10.35;2.72;;;11.50;99.90;;;;;;4959871;28;20118;-85
2020/12/22 01:20:49;;;;;;;11.18;2.20;;;11.40;99.90;;;;;;4927708;28;20447;-85
2020/12/22 01:23:15;;;;;;;8.30;2.00;;;11.40;99.90;;;;;;4959315;28;20031;-85
2020/12/22 01:25:41;;;;;;;7.80;2.33;;;11.40;99.90;;;;;;4959605;28;20356;-85
2020/12/22 01:28:07;;;;;;;7.07;2.42;;;11.50;99.90;;;;;;4943704;28;20078;-87
2020/12/22 01:30:32;;;;;;;16.00;3.20;;;11.50;99.90;;;;;;4976704;28;20019;-85
2020/12/22 01:32:58;;;;;;;12.02;2.67;;;11.50;99.90;;;;;;4958093;28;20353;-85
2020/12/22 01:35:24;;;;;;;11.25;2.67;;;11.50;99.90;;;;;;4959786;28;20033;-86
2020/12/22 01:37:49;;;;;;;15.57;3.67;;;11.60;99.90;;;;;;4943541;28;20106;-85
2020/12/22 01:40:15;;;;;;;8.68;2.55;;;11.60;99.90;;;;;;4943339;28;20037;-85
2020/12/22 01:42:44;;;;;;;14.02;3.38;;;11.60;99.90;;;;;;4927852;28;20468;-87
2020/12/22 01:45:13;;;;;;;12.50;2.45;;;11.50;99.90;;;;;;4977842;28;20121;-85
2020/12/22 01:47:45;;;;;;;10.25;2.05;;;11.50;99.90;;;;;;4946423;28;20042;-85
2020/12/22 01:50:14;;;;;;;11.88;2.63;;;11.50;99.90;;;;;;4963053;28;20022;-84
2020/12/22 01:52:40;;;;;;;7.97;2.03;;;11.50;99.90;;;;;;4972118;28;20038;-84
2020/12/22 01:55:06;;;;;;;10.30;2.85;;;11.50;99.90;;;;;;4945541;28;20026;-85
2020/12/22 01:57:32;;;;;;;12.50;3.67;;;11.50;99.90;;;;;;4958913;28;20050;-85
2020/12/22 01:59:57;;;;;;;16.33;3.63;;;11.50;99.90;;;;;;4976378;28;20022;-85
2020/12/22 02:02:25;;;;;;;11.63;2.65;;;11.40;99.90;;;;;;4959206;28;20367;-85
2020/12/22 02:04:51;;;;;;;14.60;3.53;;;11.50;99.90;;;;;;4976030;28;20046;-85
2020/12/22 02:07:18;;;;;;;15.00;4.18;;;11.50;99.90;;;;;;4958899;28;20025;-84
2020/12/22 02:09:45;;;;;;;17.58;4.40;;;11.50;99.90;;;;;;4959118;28;20527;-86
2020/12/22 02:12:11;;;;;;;13.75;4.03;;;11.50;99.90;;;;;;4927965;28;20031;-85
2020/12/22 02:14:36;;;;;;;18.27;3.28;;;11.50;99.90;;;;;;4943530;28;20375;-86
2020/12/22 02:17:02;;;;;;;13.88;3.53;;;11.60;99.90;;;;;;4958873;28;20033;-86
2020/12/22 02:19:28;;;;;;;12.48;3.78;;;11.60;99.90;;;;;;4958622;28;20023;-86
2020/12/22 02:21:54;;;;;;;24.80;4.93;;;11.60;99.90;;;;;;4958438;28;20460;-86
2020/12/22 02:24:20;;;;;;;24.33;5.03;;;11.60;99.90;;;;;;4942721;28;20403;-85
2020/12/22 02:26:46;;;;;;;29.55;6.03;;;11.60;99.90;;;;;;4926544;28;20022;-86
2020/12/22 02:29:11;;;;;;;23.10;6.20;;;11.60;99.90;;;;;;4942711;28;20038;-86
2020/12/22 02:31:37;;;;;;;32.92;6.45;;;11.60;99.90;;;;;;4958431;28;20174;-86
2020/12/22 02:34:03;;;;;;;35.08;6.80;;;11.60;99.90;;;;;;4942809;28;20027;-86
2020/12/22 02:36:28;;;;;;;30.88;7.18;;;11.60;99.90;;;;;;4942797;28;20037;-86
2020/12/22 02:38:54;;;;;;;42.15;7.57;;;11.70;99.90;;;;;;4975508;28;20095;-86
2020/12/22 02:41:20;;;;;;;47.63;10.60;;;11.60;99.90;;;;;;4943050;28;20396;-86
2020/12/22 02:43:45;;;;;;;48.08;9.70;;;11.70;99.90;;;;;;4958184;28;20031;-85
2020/12/22 02:46:11;;;;;;;57.83;12.05;;;11.70;99.90;;;;;;4944117;28;20494;-88
2020/12/22 02:48:37;;;;;;;74.93;13.88;;;11.70;99.90;;;;;;4928661;28;20027;-87
2020/12/22 02:51:02;;;;;;;53.42;11.40;;;11.70;99.90;;;;;;4958457;28;20034;-85
2020/12/22 02:53:28;;;;;;;70.90;11.68;;;11.70;99.90;;;;;;4958275;28;20082;-85
2020/12/22 02:55:54;;;;;;;61.70;12.75;;;11.70;99.90;;;;;;4942140;28;20126;-87
2020/12/22 02:58:19;;;;;;;60.63;13.00;;;11.70;99.90;;;;;;4957898;28;20054;-87
2020/12/22 03:00:45;;;;;;;66.57;12.75;;;11.70;99.90;;;;;;4975571;28;20124;-86
2020/12/22 03:03:11;;;;;;;77.88;14.63;;;11.60;99.90;;;;;;4958173;28;20086;-86
2020/12/22 03:05:37;;;;;;;64.40;12.43;;;11.70;99.90;;;;;;4957998;28;20034;-86
2020/12/22 03:08:04;;;;;;;63.75;11.63;;;11.70;99.90;;;;;;4958137;28;20129;-87
2020/12/22 03:10:29;;;;;;;76.45;14.43;;;11.70;99.90;;;;;;4958219;28;20412;-86
2020/12/22 03:12:55;;;;;;;61.83;12.77;;;11.70;99.90;;;;;;4957760;28;20035;-86
2020/12/22 03:15:21;;;;;;;69.40;12.85;;;11.70;99.90;;;;;;4975062;28;20050;-86
2020/12/22 03:17:46;;;;;;;74.35;13.43;;;11.70;99.90;;;;;;4941510;28;20460;-86
2020/12/22 03:20:13;;;;;;;69.38;15.00;;;11.70;99.90;;;;;;4926241;28;20501;-86
2020/12/22 03:22:41;;;;;;;52.72;10.93;;;11.70;99.90;;;;;;4957429;28;20468;-86
2020/12/22 03:25:10;;;;;;;64.00;11.43;;;11.70;99.90;;;;;;4941929;28;20093;-86
2020/12/22 03:27:36;;;;;;;54.83;10.75;;;11.70;99.90;;;;;;4942355;28;20126;-86
2020/12/22 03:30:10;;;;;;;67.95;12.15;;;11.70;99.90;;;;;;4942332;28;20062;-86
2020/12/22 03:32:37;;;;;;;67.18;12.90;;;11.70;99.90;;;;;;4975644;28;20034;-85
2020/12/22 03:35:04;;;;;;;63.10;12.27;;;11.70;99.90;;;;;;4958536;28;20519;-87
2020/12/22 03:37:30;;;;;;;64.10;11.73;;;11.70;99.90;;;;;;4943476;28;20078;-86
2020/12/22 03:40:00;;;;;;;59.78;11.43;;;11.70;99.90;;;;;;4961369;28;20027;-88
2020/12/22 03:42:25;;;;;;;55.63;10.40;;;11.80;99.90;;;;;;4960927;28;20042;-86
2020/12/22 03:44:51;;;;;;;47.63;10.95;;;11.80;99.90;;;;;;4943825;28;20333;-89
2020/12/22 03:47:17;;;;;;;50.17;10.52;;;11.80;99.90;;;;;;4945043;28;20023;-88
2020/12/22 03:49:43;;;;;;;56.58;11.23;;;11.80;99.90;;;;;;4960166;28;20030;-87
2020/12/22 03:52:09;;;;;;;48.05;10.20;;;11.90;99.90;;;;;;4962737;28;20456;-86
2020/12/22 03:54:35;;;;;;;49.17;9.77;;;11.90;99.90;;;;;;4961292;28;20023;-86
2020/12/22 03:57:02;;;;;;;50.72;10.73;;;11.90;99.90;;;;;;4956944;28;20047;-86
2020/12/22 03:59:28;;;;;;;51.95;10.68;;;11.90;99.90;;;;;;4958892;28;20053;-87
2020/12/22 04:01:54;;;;;;;55.22;9.98;;;12.00;99.90;;;;;;4957400;28;20468;-87
2020/12/22 04:04:20;;;;;;;59.72;10.63;;;11.90;99.90;;;;;;4973312;28;20077;-87
2020/12/22 04:06:46;;;;;;;51.70;10.23;;;11.90;99.90;;;;;;4956976;28;20023;-87
2020/12/22 04:09:12;;;;;;;50.75;10.05;;;11.90;99.90;;;;;;4957148;28;20371;-86
2020/12/22 04:11:39;;;;;;;56.00;11.23;;;11.90;99.90;;;;;;4957336;28;20054;-88
2020/12/22 04:14:09;;;;;;;58.33;11.38;;;11.90;99.90;;;;;;4957243;28;20023;-87
2020/12/22 04:16:38;;;;;;;50.08;11.30;;;11.80;99.90;;;;;;4957521;28;20551;-87
2020/12/22 04:19:08;;;;;;;58.25;12.23;;;11.80;99.90;;;;;;4956870;28;20030;-88
2020/12/22 04:21:34;;;;;;;49.88;11.23;;;11.80;99.90;;;;;;4957483;28;20101;-86
2020/12/22 04:24:00;;;;;;;49.83;11.38;;;11.80;99.90;;;;;;4957288;28;20487;-87
2020/12/22 04:26:27;;;;;;;55.13;11.02;;;11.80;99.90;;;;;;4980909;28;20027;-84
2020/12/22 04:28:53;;;;;;;53.28;10.15;;;11.80;99.90;;;;;;4970664;28;20027;-88
2020/12/22 04:31:22;;;;;;;59.60;11.48;;;11.80;99.90;;;;;;4960535;28;20037;-86
2020/12/22 04:33:51;;;;;;;55.05;9.70;;;11.80;99.90;;;;;;4960802;28;20055;-87
2020/12/22 04:36:18;;;;;;;62.20;11.85;;;11.80;99.90;;;;;;4925553;28;20515;-88
2020/12/22 04:38:44;;;;;;;50.33;10.88;;;11.80;99.90;;;;;;4957455;28;20113;-89
2020/12/22 04:41:15;;;;;;;47.42;10.32;;;11.80;99.90;;;;;;4957286;28;20042;-88
2020/12/22 04:43:42;;;;;;;57.40;11.75;;;11.70;99.90;;;;;;4957818;28;20524;-88
2020/12/22 04:46:08;;;;;;;52.90;11.30;;;11.80;99.90;;;;;;4941809;28;20077;-89
2020/12/22 04:48:39;;;;;;;56.72;10.82;;;11.70;99.90;;;;;;4957996;28;20027;-88
2020/12/22 04:51:09;;;;;;;69.88;12.25;;;11.80;99.90;;;;;;4941356;28;20428;-88
2020/12/22 04:53:36;;;;;;;53.25;11.20;;;11.70;99.90;;;;;;4957487;28;20058;-89
2020/12/22 04:56:04;;;;;;;48.65;10.98;;;11.80;99.90;;;;;;4974792;28;20023;-88
2020/12/22 04:58:30;;;;;;;71.30;12.85;;;11.80;99.90;;;;;;4974631;28;20050;-87
2020/12/22 05:00:56;;;;;;;54.13;11.38;;;11.80;99.90;;;;;;4957263;28;20062;-88
2020/12/22 05:03:23;;;;;;;58.17;11.32;;;11.70;99.90;;;;;;4941296;28;20034;-87
2020/12/22 05:05:49;;;;;;;55.60;10.48;;;11.80;99.90;;;;;;4974530;28;20019;-88
2020/12/22 05:08:15;;;;;;;55.78;11.90;;;11.80;99.90;;;;;;4944015;28;20027;-88
2020/12/22 05:10:42;;;;;;;50.42;11.57;;;11.90;99.90;;;;;;4944475;28;20034;-87
2020/12/22 05:13:12;;;;;;;51.05;10.93;;;11.90;99.90;;;;;;4944825;28;20059;-88
2020/12/22 05:15:46;;;;;;;48.80;10.90;;;11.90;99.90;;;;;;4945371;28;20063;-88
2020/12/22 05:18:15;;;;;;;63.33;11.02;;;11.90;99.90;;;;;;4977561;28;20027;-87
2020/12/22 05:20:46;;;;;;;49.13;10.25;;;12.00;99.90;;;;;;4959993;28;20046;-88
2020/12/22 05:23:14;;;;;;;51.33;9.55;;;12.00;99.90;;;;;;4944113;28;20034;-88
2020/12/22 05:25:42;;;;;;;51.80;11.73;;;12.00;99.90;;;;;;4960157;28;20030;-85
2020/12/22 05:28:08;;;;;;;53.03;9.95;;;11.90;99.90;;;;;;4977201;28;20018;-87
2020/12/22 05:30:36;;;;;;;48.47;10.32;;;11.90;99.90;;;;;;4943905;28;20459;-87
2020/12/22 05:33:04;;;;;;;54.53;11.50;;;11.90;99.90;;;;;;4959345;28;20093;-87
2020/12/22 05:35:34;;;;;;;39.75;9.05;;;11.90;99.90;;;;;;4959447;28;20023;-86
2020/12/22 05:38:01;;;;;;;48.33;10.38;;;11.90;99.90;;;;;;4959463;28;20026;-87
2020/12/22 05:40:27;;;;;;;42.47;10.15;;;11.90;99.90;;;;;;4943333;28;20061;-86
2020/12/22 05:42:53;;;;;;;47.70;11.35;;;11.90;99.90;;;;;;4943451;28;20058;-87
2020/12/22 05:45:19;;;;;;;42.25;8.15;;;12.00;99.90;;;;;;4943866;28;20137;-87
2020/12/22 05:47:45;;;;;;;49.50;9.82;;;12.00;99.90;;;;;;4928420;28;20022;-86
2020/12/22 05:50:12;;;;;;;34.70;8.50;;;12.10;99.90;;;;;;4960271;28;20054;-87
2020/12/22 05:52:42;;;;;;;47.92;9.32;;;12.10;99.90;;;;;;4945039;28;20054;-87
2020/12/22 05:55:10;;;;;;;47.05;10.45;;;12.00;99.90;;;;;;4977516;28;20023;-88
2020/12/22 05:57:35;;;;;;;40.55;9.82;;;12.10;99.90;;;;;;4963136;28;20130;-87
2020/12/22 06:00:14;;;;;;;42.15;8.18;;;12.10;99.90;;;;;;4965173;28;20058;-87
2020/12/22 06:02:40;;;;;;;35.13;9.00;;;12.10;99.90;;;;;;4946051;28;20130;-88
2020/12/22 06:05:06;;;;;;;53.50;10.07;;;12.00;99.90;;;;;;4959683;28;20031;-87
2020/12/22 06:07:32;;;;;;;47.53;10.95;;;12.00;99.90;;;;;;4959203;28;20049;-86
2020/12/22 06:09:58;;;;;;;51.05;10.45;;;12.00;99.90;;;;;;4958963;28;20472;-87
2020/12/22 06:12:24;;;;;;;59.00;12.05;;;11.90;99.90;;;;;;4976614;28;20069;-87
2020/12/22 06:14:54;;;;;;;55.60;11.63;;;11.80;99.90;;;;;;4958993;28;20047;-87
2020/12/22 06:17:21;;;;;;;50.28;10.60;;;11.80;99.90;;;;;;4976581;28;20037;-86
2020/12/22 06:19:48;;;;;;;46.53;11.23;;;11.80;99.90;;;;;;4958140;28;20054;-85
2020/12/22 06:22:18;;;;;;;53.47;11.57;;;11.90;99.90;;;;;;4978225;28;20046;-86
2020/12/22 06:24:45;;;;;;;53.53;10.70;;;11.80;99.90;;;;;;4959305;28;20023;-87
2020/12/22 06:27:12;;;;;;;51.33;10.48;;;11.90;99.90;;;;;;4958560;28;20023;-87
2020/12/22 06:29:46;;;;;;;53.97;9.75;;;11.90;99.90;;;;;;4959292;28;20023;-87
2020/12/22 06:32:25;;;;;;;56.78;10.07;;;11.80;99.90;;;;;;4959610;28;20051;-87
2020/12/22 06:34:55;;;;;;;51.05;9.95;;;11.80;99.90;;;;;;4976660;28;20054;-87
2020/12/22 06:37:40;;;;;;;55.08;10.70;;;11.80;99.90;;;;;;4943200;28;20049;-87
2020/12/22 06:40:07;;;;;;;52.20;10.07;;;11.80;99.90;;;;;;4976518;28;20061;-89
2020/12/22 06:42:38;;;;;;;49.65;10.25;;;11.80;99.90;;;;;;4942971;28;20065;-85
2020/12/22 06:45:24;;;;;;;61.80;11.20;;;11.80;99.90;;;;;;4976238;28;20052;-86
2020/12/22 06:47:50;;;;;;;57.63;12.38;;;11.70;99.90;;;;;;4942606;28;20489;-87
2020/12/22 06:50:44;;;;;;;61.45;10.32;;;11.80;99.90;;;;;;4958461;28;20026;-86
2020/12/22 06:53:33;;;;;;;60.15;12.73;;;11.70;99.90;;;;;;4957897;28;20027;-86
2020/12/22 06:55:59;;;;;;;40.75;9.88;;;11.70;99.90;;;;;;4979271;28;20034;-87
2020/12/22 06:58:47;;;;;;;58.80;10.77;;;11.70;99.90;;;;;;4942182;29;20265;-87
2020/12/22 07:01:29;;;;;;;46.42;9.95;;;11.70;99.90;;;;;;4943701;29;20070;-85
2020/12/22 07:04:12;;;;;;;50.28;10.77;;;11.70;99.90;;;;;;4971584;29;20027;-86
2020/12/22 07:06:47;;;;;;;47.20;9.13;;;11.70;99.90;;;;;;4947367;29;20404;-87
2020/12/22 07:09:21;;;;;;;65.25;11.70;;;11.70;99.90;;;;;;4944112;29;20019;-89
2020/12/22 07:11:48;;;;;;;59.92;11.25;;;11.70;99.90;;;;;;4939125;29;20035;-87
2020/12/22 07:14:18;;;;;;;62.38;12.43;;;11.60;99.90;;;;;;4956383;29;20089;-87
2020/12/22 07:16:52;;;;;;;55.53;12.80;;;11.50;99.90;;;;;;4923771;29;20473;-88
2020/12/22 07:19:23;;;;;;;58.97;10.65;;;11.50;99.90;;;;;;4938929;29;20484;-88
2020/12/22 07:21:50;;;;;;;60.78;12.05;;;11.50;99.90;;;;;;4938908;29;20043;-87
2020/12/22 07:24:17;;;;;;;54.15;11.13;;;11.50;99.90;;;;;;4955796;29;20055;-89
2020/12/22 07:26:42;;;;;;;49.65;11.77;;;11.50;99.90;;;;;;4938784;29;20053;-86
2020/12/22 07:29:11;;;;;;;52.80;10.10;;;11.50;99.90;;;;;;4938329;29;20103;-88
2020/12/22 07:31:37;;;;;;;63.08;12.50;;;11.50;99.90;;;;;;4938497;29;20113;-87
2020/12/22 07:34:05;;;;;;;66.03;12.60;;;11.40;99.90;;;;;;4938099;29;20066;-88
2020/12/22 07:36:34;;;;;;;50.22;11.38;;;11.40;99.90;;;;;;4938577;29;20023;-88
2020/12/22 07:39:15;;;;;;;55.40;11.10;;;11.40;99.90;;;;;;4938647;29;20019;-88
2020/12/22 07:41:56;;;;;;;64.30;10.75;;;11.40;99.90;;;;;;4938660;29;20062;-87
2020/12/22 07:44:23;;;;;;;56.08;11.35;;;11.40;99.90;;;;;;4937749;29;20031;-86
2020/12/22 07:46:53;;;;;;;66.03;12.45;;;11.40;99.90;;;;;;4937926;29;20023;-86
2020/12/22 07:49:22;;;;;;;59.95;11.15;;;11.40;99.90;;;;;;4922897;29;20039;-88
2020/12/22 07:51:48;;;;;;;56.03;11.07;;;11.40;99.90;;;;;;4923327;29;20097;-87
2020/12/22 07:54:20;;;;;;;57.08;10.52;;;11.40;99.90;;;;;;4923019;29;20024;-88
2020/12/22 07:56:46;;;;;;;47.47;9.25;;;11.40;99.90;;;;;;4924174;29;20027;-87
2020/12/22 07:59:17;;;;;;;43.45;9.63;;;11.40;99.90;;;;;;4955198;28;20062;-88
2020/12/22 08:01:46;;;;;;;46.38;9.30;;;11.50;99.90;;;;;;4989942;28;20039;-87
2020/12/22 08:04:13;;;;;;;56.33;11.65;;;11.50;99.90;;;;;;4959354;28;20472;-87
2020/12/22 08:06:54;;;;;;;57.65;9.48;;;11.50;99.90;;;;;;4962336;28;20033;-86
2020/12/22 08:09:39;;;;;;;51.33;9.85;;;11.50;99.90;;;;;;4961366;28;20030;-87
2020/12/22 08:12:08;;;;;;;;;;;11.50;99.90;;;;;;4959381;28;20027;-87
2020/12/22 08:14:44;;;;;;;47.47;9.88;;;11.50;99.90;;;;;;4975568;28;19902;-88
2020/12/22 08:20:28;;;;;;;37.70;7.95;;;11.40;99.90;;;;;;4974948;28;20531;-87
2020/12/22 08:22:56;;;;;;;50.55;8.43;;;11.40;99.90;;;;;;4975626;28;20037;-88
2020/12/22 08:25:22;;;;;;;42.00;6.93;;;11.30;99.90;;;;;;4974175;28;20081;-88
2020/12/22 08:28:00;;;;;;;40.50;7.45;;;11.30;99.90;;;;;;4957448;28;20023;-87
2020/12/22 08:30:25;;;;;;;44.67;6.70;;;11.20;99.90;;;;;;4974602;28;20102;-89
2020/12/22 08:32:56;;;;;;;34.15;6.75;;;11.10;99.90;;;;;;4957803;28;20118;-88
2020/12/22 08:35:25;;;;;;;38.40;5.90;;;11.10;99.90;;;;;;4973603;28;20125;-88
2020/12/22 08:38:02;;;;;;;27.83;5.13;;;10.90;99.90;;;;;;4941082;28;20457;-88
2020/12/22 08:40:30;;;;;;;29.00;5.80;;;10.80;99.90;;;;;;4940315;28;20034;-87
2020/12/22 08:42:57;;;;;;;28.05;4.55;;;10.80;99.90;;;;;;4958776;28;20392;-88
2020/12/22 08:45:26;;;;;;;31.85;5.78;;;10.80;99.90;;;;;;4960462;28;20026;-87
2020/12/22 08:47:53;;;;;;;19.40;4.78;;;10.70;99.90;;;;;;4978145;28;20453;-86
2020/12/22 08:50:21;;;;;;;21.40;4.00;;;10.70;99.90;;;;;;4977765;28;20398;-87
2020/12/22 08:53:15;;;;;;;22.15;4.97;;;10.60;99.90;;;;;;4960503;28;20030;-88
2020/12/22 08:55:46;;;;;;;26.50;5.15;;;10.60;99.90;;;;;;4944214;28;20038;-87
2020/12/22 08:58:11;;;;;;;20.70;4.53;;;10.60;99.90;;;;;;4960670;28;20077;-89
2020/12/22 09:00:37;;;;;;;22.77;5.75;;;10.60;99.90;;;;;;4960339;28;20023;-86
2020/12/22 09:03:05;;;;;;;21.95;5.20;;;10.60;99.90;;;;;;4959750;28;20027;-86
2020/12/22 09:05:33;;;;;;;25.13;5.00;;;10.70;99.90;;;;;;4959884;28;20018;-86
2020/12/22 09:08:00;;;;;;;21.90;5.03;;;10.70;99.90;;;;;;4959976;28;20043;-87
2020/12/22 09:10:26;;;;;;;25.75;4.57;;;10.60;99.90;;;;;;4960730;28;20026;-86
2020/12/22 09:12:52;;;;;;;22.42;4.47;;;10.60;99.90;;;;;;4960504;28;20023;-86
2020/12/22 09:15:18;;;;;;;19.42;4.10;;;10.50;99.90;;;;;;4992479;28;20026;-86
2020/12/22 09:17:45;;;;;;;30.77;5.55;;;10.60;99.90;;;;;;4959564;28;20022;-85
2020/12/22 09:20:18;;;;;;;19.50;5.13;;;10.60;99.90;;;;;;4959625;28;20483;-87
2020/12/22 09:22:43;;;;;;;18.27;4.95;;;10.60;99.90;;;;;;4959239;28;20031;-86
2020/12/22 09:25:09;;;;;;;24.73;6.30;;;10.70;99.90;;;;;;4959632;28;20377;-85
2020/12/22 09:27:38;;;;;;;23.38;4.95;;;10.60;99.90;;;;;;4959516;28;20031;-86
2020/12/22 09:30:11;;;;;;;32.00;6.30;;;10.60;99.90;;;;;;4959713;28;20019;-85
2020/12/22 09:32:37;;;;;;;22.63;5.37;;;10.70;99.90;;;;;;4976679;28;20031;-86
2020/12/22 09:35:04;;;;;;;16.73;4.32;;;10.70;99.90;;;;;;4960515;28;20023;-85
2020/12/22 09:37:30;;;;;;;20.08;5.38;;;10.80;99.90;;;;;;4962767;28;20022;-85
2020/12/22 09:39:55;;;;;;;22.23;4.50;;;10.80;99.90;;;;;;4975305;28;20026;-85
2020/12/22 09:42:23;;;;;;;24.10;5.05;;;10.80;99.90;;;;;;4946916;28;20114;-86
2020/12/22 09:44:49;;;;;;;19.58;5.03;;;10.90;99.90;;;;;;4977746;28;20070;-85
2020/12/22 09:47:16;;;;;;;22.42;3.92;;;10.80;99.90;;;;;;4959168;28;20030;-85
2020/12/22 09:49:42;;;;;;;20.15;5.07;;;10.80;99.90;;;;;;4976334;28;20038;-88
2020/12/22 09:52:08;;;;;;;13.55;4.55;;;10.80;99.90;;;;;;4959164;28;20027;-86
2020/12/22 09:54:34;;;;;;;17.65;4.20;;;10.70;99.90;;;;;;4958052;28;20029;-86
2020/12/22 09:56:59;;;;;;;14.30;4.22;;;10.80;99.90;;;;;;4958657;28;20058;-87
2020/12/22 09:59:25;;;;;;;21.15;4.80;;;10.80;99.90;;;;;;4942942;28;20051;-87
2020/12/22 10:01:51;;;;;;;24.92;4.90;;;10.90;99.90;;;;;;4959202;28;20042;-87
2020/12/22 10:04:17;;;;;;;20.13;5.03;;;10.90;99.90;;;;;;4959274;28;20019;-87
2020/12/22 10:06:43;;;;;;;17.45;4.40;;;10.90;99.90;;;;;;4958814;28;20114;-80
2020/12/22 10:09:09;;;;;;;20.65;5.30;;;10.90;99.90;;;;;;4958805;28;20019;-85
2020/12/22 10:11:37;;;;;;;12.07;3.67;;;10.90;99.90;;;;;;4975785;28;20030;-85
2020/12/22 10:14:06;;;;;;;12.25;3.92;;;10.80;99.90;;;;;;4976347;28;20121;-85
2020/12/22 10:16:33;;;;;;;21.17;4.50;;;10.80;99.90;;;;;;4978610;28;20027;-86
2020/12/22 10:18:58;;;;;;;20.10;4.03;;;10.80;99.90;;;;;;4958546;28;20023;-85
2020/12/22 10:21:25;;;;;;;15.00;4.78;;;10.90;99.90;;;;;;4975753;28;20142;-84
2020/12/22 10:23:59;;;;;;;12.70;4.15;;;10.90;99.90;;;;;;4942502;28;20117;-84
2020/12/22 10:26:26;;;;;;;12.90;4.40;;;10.90;99.90;;;;;;4959711;28;20026;-85
2020/12/22 10:28:52;;;;;;;10.60;3.92;;;10.90;99.90;;;;;;4958586;28;20035;-85
2020/12/22 10:31:20;;;;;;;9.95;4.00;;;10.80;99.90;;;;;;4958067;28;20082;-83
2020/12/22 10:33:47;;;;;;;12.57;3.63;;;10.70;99.90;;;;;;4975938;28;20051;-87
2020/12/22 10:36:14;;;;;;;11.55;3.75;;;10.70;99.90;;;;;;4959327;28;20490;-84
2020/12/22 10:38:40;;;;;;;15.25;3.85;;;10.80;99.90;;;;;;4957948;28;20469;-85
2020/12/22 10:41:06;;;;;;;12.45;3.97;;;10.70;99.90;;;;;;4957935;28;20038;-87
2020/12/22 10:43:31;;;;;;;14.77;4.03;;;10.60;99.90;;;;;;4958024;28;20385;-85
2020/12/22 10:45:58;;;;;;;10.43;4.07;;;10.70;99.90;;;;;;4942289;28;20404;-86
2020/12/22 10:48:24;;;;;;;10.55;3.30;;;10.70;99.90;;;;;;4958067;28;20137;-87
2020/12/22 10:50:50;;;;;;;9.00;3.22;;;10.60;99.90;;;;;;4959311;28;20117;-87
2020/12/22 10:53:16;;;;;;;6.05;2.50;;;10.60;99.90;;;;;;4974473;28;20503;-86
2020/12/22 10:55:41;;;;;;;9.13;2.75;;;10.60;99.90;;;;;;4958297;28;20089;-86
2020/12/22 10:58:08;;;;;;;13.73;2.70;;;10.60;99.90;;;;;;4941603;28;20488;-85
2020/12/22 11:00:34;;;;;;;6.95;2.58;;;10.60;99.90;;;;;;4957834;28;20034;-85
2020/12/22 11:03:03;;;;;;;11.98;2.63;;;10.60;99.90;;;;;;4942267;28;20042;-84
2020/12/22 11:08:13;;;;;;;6.75;2.63;;;10.70;99.90;;;;;;4942519;29;20104;-86
2020/12/22 11:10:38;;;;;;;6.90;2.75;;;10.80;99.90;;;;;;4956870;29;20392;-87
2020/12/22 11:13:04;;;;;;;11.73;2.90;;;10.90;99.90;;;;;;4971417;28;20073;-89
2020/12/22 11:15:31;;;;;;;8.32;3.15;;;10.90;99.90;;;;;;4954863;29;20410;-85
2020/12/22 11:17:57;;;;;;;13.43;3.17;;;10.90;99.90;;;;;;4955635;29;20031;-86
2020/12/22 11:20:22;;;;;;;13.98;3.70;;;10.80;99.90;;;;;;4938947;29;20461;-87
2020/12/22 11:22:49;;;;;;;11.85;3.47;;;10.80;99.90;;;;;;4970187;28;20031;-85
2020/12/22 11:25:15;;;;;;;17.88;4.32;;;10.80;99.90;;;;;;4938405;29;20110;-87
2020/12/22 11:27:41;;;;;;;16.55;3.90;;;10.80;99.90;;;;;;4938261;29;20031;-87
2020/12/22 11:30:10;;;;;;;16.30;4.05;;;10.70;99.90;;;;;;4955622;29;20086;-86
2020/12/22 11:32:35;;;;;;;10.48;3.67;;;10.70;99.90;;;;;;4954454;29;20041;-86
2020/12/22 11:35:02;;;;;;;16.08;3.97;;;10.70;99.90;;;;;;4954756;29;20447;-86
2020/12/22 11:37:29;;;;;;;17.88;4.20;;;10.70;99.90;;;;;;4937896;29;20122;-88
2020/12/22 11:39:54;;;;;;;17.77;4.75;;;10.70;99.90;;;;;;4938138;29;20114;-86
2020/12/22 11:42:20;;;;;;;14.80;3.70;;;10.80;99.90;;;;;;4970062;28;20110;-87
2020/12/22 11:44:46;;;;;;;7.95;3.95;;;10.80;99.90;;;;;;4953771;29;20377;-88
2020/12/22 11:47:12;;;;;;;18.00;3.58;;;10.70;99.90;;;;;;4954192;29;20027;-87
2020/12/22 11:49:39;;;;;;;9.23;3.15;;;10.70;99.90;;;;;;4955512;29;20480;-88
2020/12/22 11:52:05;;;;;;;14.80;4.00;;;10.70;99.90;;;;;;4953796;29;20045;-88
2020/12/22 11:54:30;;;;;;;15.18;3.03;;;10.70;99.90;;;;;;4954668;29;20027;-87
2020/12/22 11:56:56;;;;;;;18.17;3.22;;;10.70;99.90;;;;;;4938353;29;20028;-86
2020/12/22 11:59:22;;;;;;;19.80;4.47;;;10.80;99.90;;;;;;4953510;29;20055;-87
2020/12/22 12:01:47;;;;;;;12.48;3.92;;;10.90;99.90;;;;;;4938101;29;20118;-87
2020/12/22 12:04:16;;;;;;;8.65;3.33;;;10.80;99.90;;;;;;4970313;28;20034;-88
2020/12/22 12:06:46;;;;;;;16.30;3.85;;;10.80;99.90;;;;;;4954268;28;20034;-86
2020/12/22 12:09:15;;;;;;;14.57;3.47;;;10.90;99.90;;;;;;4938231;29;20050;-88
2020/12/22 12:11:41;;;;;;;14.50;3.00;;;10.90;99.90;;;;;;4938867;29;20030;-87
2020/12/22 12:14:06;;;;;;;18.23;3.38;;;10.90;99.90;;;;;;4939741;29;20030;-87
2020/12/22 12:16:33;;;;;;;8.45;2.35;;;10.90;99.90;;;;;;4949718;29;20465;-89
2020/12/22 12:19:00;;;;;;;13.50;2.80;;;10.90;99.90;;;;;;4970154;29;20107;-86
2020/12/22 12:21:26;;;;;;;8.63;3.30;;;10.90;99.90;;;;;;4948047;29;20042;-85
2020/12/22 12:23:52;;;;;;;11.45;3.92;;;10.80;99.90;;;;;;4962995;29;20027;-87
2020/12/22 12:26:18;;;;;;;11.80;2.80;;;10.80;99.90;;;;;;4961813;29;20023;-87
2020/12/22 12:28:44;;;;;;;10.38;3.55;;;10.70;99.90;;;;;;4959747;29;20023;-85
2020/12/22 12:31:17;;;;;;;9.13;3.42;;;10.60;99.90;;;;;;4943295;29;20024;-85
2020/12/22 12:33:45;;;;;;;7.03;2.08;;;10.50;99.90;;;;;;4959707;29;20461;-86
2020/12/22 12:36:20;;;;;;;9.38;2.40;;;10.40;99.90;;;;;;4957822;29;20039;-86
2020/12/22 12:38:45;;;;;;;;;;;10.40;99.90;;;;;;4959937;29;20058;-86
2020/12/22 12:41:14;;;;;;;9.80;2.97;;;10.50;99.90;;;;;;4942173;29;20400;-86
2020/12/22 12:43:43;;;;;;;12.13;2.65;;;10.60;99.90;;;;;;4941815;29;20483;-87